Time;durP1;ratioP1;P1;durP2;ratioP2;P2;SDS_P1;SDS_P2;PMS_P1;PMS_P2;Temp;Humidity;BMP_temperature;BMP_pressure;BME280_temperature;BME280_humidity;BME280_pressure;Samples;Min_cycle;Max_cycle;Signal;HPM_P1;HPM_P2
2023/10/20 00:02:34;;;;;;;4.77;2.60;;;;;;;18.88;61.50;93813.78;10440945;28;20507;-28
2023/10/20 00:07:36;;;;;;;5.57;2.30;;;;;;;18.87;61.20;93805.38;10439187;28;20039;-28
2023/10/20 00:12:38;;;;;;;10.38;3.38;;;;;;;18.82;61.50;93797.16;10437941;28;20385;-29
2023/10/20 00:17:40;;;;;;;5.07;2.42;;;;;;;18.83;61.38;93787.84;10444290;28;20045;-28
2023/10/20 00:22:41;;;;;;;5.05;2.20;;;;;;;18.87;61.08;93789.34;10442555;28;20449;-29
2023/10/20 00:27:41;;;;;;;11.93;2.30;;;;;;;18.86;61.02;93772.50;10448121;28;20034;-28
2023/10/20 00:32:42;;;;;;;7.13;3.20;;;;;;;18.84;61.28;93759.09;10446388;28;20041;-28
2023/10/20 00:37:42;;;;;;;10.00;2.50;;;;;;;18.85;61.10;93761.53;10435121;28;20087;-28
2023/10/20 00:42:43;;;;;;;6.20;2.45;;;;;;;18.86;61.23;93749.69;10444709;28;20025;-29
2023/10/20 00:47:47;;;;;;;4.05;2.35;;;;;;;18.84;61.35;93731.22;10440389;28;20064;-28
2023/10/20 00:52:49;;;;;;;5.88;2.03;;;;;;;18.84;61.43;93723.59;10443165;28;20060;-28
2023/10/20 00:57:50;;;;;;;6.30;2.35;;;;;;;18.84;61.19;93726.13;10448031;28;20404;-28
2023/10/20 01:02:53;;;;;;;4.22;2.05;;;;;;;18.85;61.23;93718.44;10443089;28;20028;-28
2023/10/20 01:07:53;;;;;;;5.82;2.40;;;;;;;18.85;60.98;93689.75;10442910;28;20028;-28
2023/10/20 01:12:57;;;;;;;7.70;2.55;;;;;;;18.85;61.35;93679.63;10444092;28;20123;-28
2023/10/20 01:17:58;;;;;;;4.18;2.10;;;;;;;18.84;61.24;93668.66;10441442;28;20037;-28
2023/10/20 01:22:59;;;;;;;12.75;2.22;;;;;;;18.83;61.32;93661.94;10438772;28;20044;-29
2023/10/20 01:27:59;;;;;;;3.20;1.80;;;;;;;18.83;61.24;93635.81;10440744;28;20079;-29
2023/10/20 01:33:00;;;;;;;7.68;4.00;;;;;;;18.83;61.20;93645.94;10441673;28;20124;-28
2023/10/20 01:38:00;;;;;;;5.60;2.53;;;;;;;18.84;61.08;93637.44;10438080;28;20029;-28
2023/10/20 01:43:01;;;;;;;6.10;2.30;;;;;;;18.83;61.04;93621.41;10446260;28;20107;-31
2023/10/20 01:48:01;;;;;;;5.87;2.83;;;;;;;18.83;60.92;93626.47;10441136;28;20029;-28
2023/10/20 01:53:02;;;;;;;5.57;2.63;;;;;;;18.84;60.40;93604.50;10448215;28;20299;-28
2023/10/20 01:58:02;;;;;;;5.75;2.80;;;;;;;18.84;60.97;93596.88;10453794;28;20283;-29
2023/10/20 02:03:03;;;;;;;8.98;2.53;;;;;;;18.83;61.17;93596.06;10437768;28;20032;-29
2023/10/20 02:08:04;;;;;;;6.70;2.42;;;;;;;18.79;60.99;93545.59;10441668;28;20082;-29
2023/10/20 02:13:05;;;;;;;6.60;2.33;;;;;;;18.82;60.99;93527.72;10443732;28;20079;-29
2023/10/20 02:18:07;;;;;;;3.73;1.80;;;;;;;18.84;61.21;93508.19;10448907;28;20098;-29
2023/10/20 02:23:08;;;;;;;7.03;1.95;;;;;;;18.81;60.69;93480.44;10446801;28;20291;-28
2023/10/20 02:28:08;;;;;;;3.60;2.00;;;;;;;18.81;61.03;93450.03;10444645;28;20402;-29
2023/10/20 02:33:09;;;;;;;8.90;2.30;;;;;;;18.81;61.02;93409.50;10437987;28;20095;-28
2023/10/20 02:38:10;;;;;;;7.50;2.60;;;;;;;18.82;60.80;93398.50;10436780;28;20056;-32
2023/10/20 02:43:10;;;;;;;3.75;1.98;;;;;;;18.79;60.97;93374.13;10441188;28;20492;-28
2023/10/20 02:48:10;;;;;;;4.23;1.83;;;;;;;18.82;60.90;93360.47;10441351;28;20490;-28
2023/10/20 02:53:11;;;;;;;3.17;1.77;;;;;;;18.82;60.96;93350.34;10435959;28;20037;-27
2023/10/20 02:58:13;;;;;;;5.20;2.45;;;;;;;18.81;61.12;93331.78;10439814;28;20102;-28
2023/10/20 03:03:13;;;;;;;6.85;2.00;;;;;;;18.81;60.91;93323.34;10445769;28;20082;-28
2023/10/20 03:08:14;;;;;;;2.88;1.80;;;;;;;18.81;61.11;93318.28;10440091;28;20136;-28
2023/10/20 03:13:16;;;;;;;5.25;2.30;;;;;;;18.82;61.10;93302.19;10444076;28;20032;-28
2023/10/20 03:18:17;;;;;;;3.67;2.28;;;;;;;18.81;61.06;93282.78;10444559;28;20491;-28
2023/10/20 03:23:21;;;;;;;3.87;1.63;;;;;;;18.81;60.76;93278.56;10442571;28;20029;-30
2023/10/20 03:28:22;;;;;;;4.93;2.22;;;;;;;18.79;60.66;93274.47;10444277;28;20292;-28
2023/10/20 03:33:23;;;;;;;15.07;2.10;;;;;;;18.81;60.88;93267.59;10437748;28;20509;-28
2023/10/20 03:38:23;;;;;;;6.87;1.70;;;;;;;18.82;60.91;93256.59;10434882;28;20087;-28
2023/10/20 03:43:24;;;;;;;5.45;2.22;;;;;;;18.86;60.83;93250.44;10433902;28;20287;-28
2023/10/20 03:48:24;;;;;;;4.05;2.20;;;;;;;18.88;60.04;93239.31;10422832;28;20827;-28
2023/10/20 03:53:32;;;;;;;3.73;1.73;;;;;;;18.88;59.88;93224.09;10411962;28;20037;-28
2023/10/20 03:58:35;;;;;;;6.57;1.80;;;;;;;18.91;59.45;93203.66;10400120;28;20495;-29
2023/10/20 04:03:36;;;;;;;8.77;2.25;;;;;;;18.96;59.11;93180.56;10408056;28;20087;-28
2023/10/20 04:08:36;;;;;;;4.73;1.80;;;;;;;18.95;59.44;93164.56;10399559;28;20109;-30
2023/10/20 04:13:36;;;;;;;3.97;2.00;;;;;;;18.98;59.08;93133.97;10404979;28;20121;-29
2023/10/20 04:18:37;;;;;;;4.03;1.40;;;;;;;18.97;59.04;93091.78;10424256;28;20043;-29
2023/10/20 04:23:38;;;;;;;3.80;1.75;;;;;;;18.95;59.37;93072.50;10437028;28;20056;-29
2023/10/20 04:28:42;;;;;;;2.95;1.60;;;;;;;18.98;59.01;93057.94;10426998;28;20030;-28
2023/10/20 04:54:45;;;;;;;5.47;1.92;;;;;;;19.01;59.90;92970.75;10434562;28;20464;-28
2023/10/20 04:59:45;;;;;;;9.02;2.25;;;;;;;18.91;59.49;92926.63;10442849;28;20025;-28
2023/10/20 05:04:49;;;;;;;5.60;2.00;;;;;;;19.01;59.38;92909.94;10441316;28;20037;-28
2023/10/20 05:09:54;;;;;;;4.70;1.65;;;;;;;18.99;60.13;92911.75;10449999;28;20280;-28
2023/10/20 05:14:54;;;;;;;5.60;1.73;;;;;;;18.95;59.91;92892.56;10450152;28;20395;-30
2023/10/20 05:19:55;;;;;;;3.90;1.23;;;;;;;18.99;59.90;92906.69;10443785;28;20044;-28
2023/10/20 05:24:55;;;;;;;8.27;1.67;;;;;;;19.01;59.73;92864.31;10448340;28;20279;-29
2023/10/20 05:29:55;;;;;;;6.10;1.70;;;;;;;18.98;59.81;92849.28;10446646;28;20028;-28
2023/10/20 05:34:58;;;;;;;12.32;2.00;;;;;;;18.95;60.24;92864.69;10449759;28;20099;-28
2023/10/20 05:39:59;;;;;;;6.95;2.00;;;;;;;18.95;60.17;92854.53;10447833;28;20118;-29
2023/10/20 05:45:17;;;;;;;4.00;1.83;;;;;;;18.97;59.76;92852.72;10445229;28;20116;-28
2023/10/20 05:50:17;;;;;;;5.22;1.48;;;;;;;18.92;59.71;92842.06;10447070;28;20051;-28
2023/10/20 05:55:17;;;;;;;4.30;1.73;;;;;;;18.97;59.43;92858.63;10443031;28;20040;-28
2023/10/20 06:00:18;;;;;;;5.40;1.80;;;;;;;19.01;58.93;92874.44;10439819;28;20029;-28
2023/10/20 06:05:19;;;;;;;4.63;1.92;;;;;;;19.03;59.22;92862.47;10451287;28;20036;-28
2023/10/20 06:10:22;;;;;;;3.42;1.58;;;;;;;19.02;58.94;92850.72;10451694;28;20609;-28
2023/10/20 06:15:23;;;;;;;5.95;1.70;;;;;;;19.02;59.31;92848.97;10444406;28;20175;-29
2023/10/20 06:20:23;;;;;;;3.92;1.45;;;;;;;19.03;58.81;92859.94;10448950;28;20594;-28
2023/10/20 06:25:24;;;;;;;3.07;1.33;;;;;;;19.02;59.37;92871.00;10443150;28;20029;-30
2023/10/20 06:30:25;;;;;;;3.58;1.70;;;;;;;19.00;59.66;92888.03;10446245;28;20031;-27
2023/10/20 06:35:32;;;;;;;5.43;2.07;;;;;;;19.01;59.67;92913.25;10448399;28;20029;-28
2023/10/20 06:40:32;;;;;;;2.80;1.75;;;;;;;19.00;60.11;92938.72;10444654;28;20774;-28
2023/10/20 06:45:34;;;;;;;4.75;1.85;;;;;;;19.01;59.49;92970.75;10438060;28;20032;-28
2023/10/20 06:50:34;;;;;;;8.75;2.00;;;;;;;19.00;60.16;93009.69;10441809;28;20040;-28
2023/10/20 06:55:34;;;;;;;4.83;1.83;;;;;;;18.99;60.35;93046.06;10438534;28;20037;-28
2023/10/20 07:00:35;;;;;;;3.87;1.73;;;;;;;19.00;60.35;93095.84;10439759;28;20056;-28
2023/10/20 07:05:39;;;;;;;11.00;2.25;;;;;;;19.04;59.70;93102.38;10444389;28;20031;-28
2023/10/20 07:10:39;;;;;;;3.03;1.83;;;;;;;19.06;59.27;93136.03;10441493;28;20045;-28
2023/10/20 07:15:40;;;;;;;5.32;1.80;;;;;;;19.07;59.62;93156.22;10436495;28;20037;-28
2023/10/20 07:20:40;;;;;;;5.00;1.60;;;;;;;19.01;60.67;93173.53;10438010;28;20095;-28
2023/10/20 07:25:42;;;;;;;21.88;3.55;;;;;;;19.06;61.64;93191.78;10446005;28;20379;-28
2023/10/20 07:30:43;;;;;;;16.92;5.80;;;;;;;19.08;60.87;93192.53;10438100;28;20025;-28
2023/10/20 07:35:43;;;;;;;9.77;1.93;;;;;;;19.08;60.41;93172.28;10441566;28;20545;-28
2023/10/20 07:40:44;;;;;;;5.93;1.83;;;;;;;19.02;60.17;93182.75;10447124;28;20032;-29
2023/10/20 07:45:46;;;;;;;8.38;2.15;;;;;;;18.96;60.61;93198.31;10439434;28;20029;-29
2023/10/20 07:50:47;;;;;;;5.47;2.03;;;;;;;18.93;60.76;93206.09;10443446;28;20476;-28
2023/10/20 07:55:48;;;;;;;4.03;1.95;;;;;;;18.96;60.82;93237.16;10442102;28;20044;-28
2023/10/20 08:00:48;;;;;;;4.33;1.63;;;;;;;18.95;60.91;93234.69;10443528;28;20029;-29
2023/10/20 08:05:49;;;;;;;8.57;1.80;;;;;;;18.93;61.18;93252.50;10437111;28;20318;-29
2023/10/20 08:10:50;;;;;;;9.60;2.05;;;;;;;18.93;60.75;93251.72;10439004;28;20037;-28
2023/10/20 08:15:50;;;;;;;5.70;2.03;;;;;;;18.92;61.23;93265.28;10429340;28;20396;-29
2023/10/20 08:20:50;;;;;;;7.40;2.63;;;;;;;18.94;60.54;93271.09;10444958;28;20115;-30
2023/10/20 08:25:52;;;;;;;8.80;2.65;;;;;;;18.93;60.45;93297.34;10440145;28;20476;-28
2023/10/20 08:31:07;;;;;;;6.40;2.63;;;;;;;18.93;60.79;93312.53;10444131;28;20025;-28
2023/10/20 08:36:20;;;;;;;9.85;2.78;;;;;;;18.91;60.78;93342.22;10439955;28;20404;-28
2023/10/20 08:41:22;;;;;;;10.30;2.60;;;;;;;18.91;61.10;93342.22;10453279;28;20546;-28
2023/10/20 08:46:24;;;;;;;9.85;2.58;;;;;;;18.91;61.09;93362.50;10451422;28;20153;-28
2023/10/20 08:51:25;;;;;;;10.98;1.88;;;;;;;18.88;61.07;93345.75;10446239;28;20037;-28
2023/10/20 08:56:25;;;;;;;9.85;2.20;;;;;;;18.87;61.25;93354.25;10451696;28;20115;-29
2023/10/20 09:01:25;;;;;;;20.73;3.10;;;;;;;18.89;61.19;93359.22;10446750;28;20025;-28
2023/10/20 09:06:27;;;;;;;13.90;2.77;;;;;;;18.87;61.01;93358.50;10448639;28;20114;-29
2023/10/20 09:11:31;;;;;;;12.05;3.55;;;;;;;18.88;61.06;93372.78;10451392;28;20055;-29
2023/10/20 09:16:34;;;;;;;11.70;2.17;;;;;;;18.88;61.01;93385.47;10451003;28;20040;-29
2023/10/20 09:21:34;;;;;;;10.63;2.03;;;;;;;18.88;60.89;93390.53;10452313;28;20053;-28
2023/10/20 09:26:39;;;;;;;11.30;2.67;;;;;;;18.90;61.15;93403.94;10449774;28;20040;-29
2023/10/20 09:31:39;;;;;;;11.55;2.35;;;;;;;18.90;61.14;93393.78;10442848;28;20457;-28
2023/10/20 09:36:45;;;;;;;12.88;2.40;;;;;;;18.91;60.89;93416.53;10448655;28;20086;-29
2023/10/20 09:41:50;;;;;;;9.20;1.58;;;;;;;18.90;61.10;93424.22;10450871;28;20029;-28
2023/10/20 09:47:12;;;;;;;10.15;3.03;;;;;;;18.85;61.11;93431.25;10446586;28;20083;-28
2023/10/20 09:52:12;;;;;;;11.82;2.97;;;;;;;18.82;61.51;93441.56;10446205;28;20067;-28
2023/10/20 09:57:14;;;;;;;8.17;1.77;;;;;;;18.86;61.18;93446.38;10449906;28;20559;-29
2023/10/20 10:02:25;;;;;;;8.30;2.08;;;;;;;18.94;61.09;93466.25;10450072;28;20119;-28
2023/10/20 10:07:32;;;;;;;7.32;2.00;;;;;;;18.98;60.96;93477.84;10446890;28;20041;-30
2023/10/20 10:12:32;;;;;;;5.78;2.10;;;;;;;18.99;61.40;93489.66;10446919;28;20037;-28
2023/10/20 10:17:45;;;;;;;7.67;2.53;;;;;;;18.91;61.24;93476.56;10433944;28;20033;-28
2023/10/20 10:22:45;;;;;;;9.27;2.70;;;;;;;19.03;60.94;93502.06;10441022;28;20044;-29
2023/10/20 10:27:46;;;;;;;8.03;2.93;;;;;;;19.03;61.38;93506.31;10449327;28;20675;-30
2023/10/20 10:32:48;;;;;;;4.13;2.45;;;;;;;19.03;60.97;93511.38;10441461;28;20047;-28
2023/10/20 10:37:48;;;;;;;4.15;1.50;;;;;;;19.04;61.25;93500.34;10446731;28;20133;-29
2023/10/20 10:42:51;;;;;;;6.63;1.67;;;;;;;19.02;61.18;93514.81;10444692;28;20033;-29
2023/10/20 10:48:07;;;;;;;9.65;4.82;;;;;;;19.03;61.09;93519.00;10445194;28;20390;-28
2023/10/20 10:53:08;;;;;;;8.15;4.55;;;;;;;19.02;61.18;93499.63;10445928;28;20060;-28
2023/10/20 10:58:10;;;;;;;6.88;4.00;;;;;;;18.99;61.01;93505.66;10448777;28;20033;-30
2023/10/20 11:03:14;;;;;;;5.28;3.95;;;;;;;19.00;60.86;93527.56;10445352;28;20025;-28
2023/10/20 11:08:14;;;;;;;7.40;3.38;;;;;;;18.90;62.02;93534.03;10447105;28;20502;-29
2023/10/20 11:13:16;;;;;;;6.65;3.20;;;;;;;19.00;61.36;93542.78;10448439;28;20055;-29
2023/10/20 11:18:16;;;;;;;5.95;2.90;;;;;;;18.96;61.47;93545.56;10445528;28;20036;-29
2023/10/20 11:23:27;;;;;;;10.40;3.08;;;;;;;19.01;61.15;93549.47;10445959;28;20029;-28
2023/10/20 11:28:29;;;;;;;7.82;2.78;;;;;;;19.04;61.61;93573.84;10442921;28;20124;-28
2023/10/20 11:33:29;;;;;;;7.55;3.15;;;;;;;19.08;61.86;93577.88;10448295;28;20061;-28
2023/10/20 11:38:32;;;;;;;12.90;3.50;;;;;;;19.18;61.93;93581.56;10446055;28;20059;-29
2023/10/20 11:43:32;;;;;;;4.43;1.85;;;;;;;19.25;61.95;93563.44;10445814;28;20404;-28
2023/10/20 11:48:32;;;;;;;9.40;2.10;;;;;;;19.31;61.94;93578.34;10448973;28;20036;-28
2023/10/20 11:53:33;;;;;;;6.30;2.43;;;;;;;19.38;61.66;93594.88;10446354;28;20039;-28
2023/10/20 11:58:33;;;;;;;5.33;2.30;;;;;;;19.44;61.45;93578.50;10439908;28;20037;-28
2023/10/20 12:03:33;;;;;;;6.60;2.53;;;;;;;19.50;61.15;93580.72;10446453;28;20025;-28
2023/10/20 12:08:34;;;;;;;10.60;3.03;;;;;;;19.53;60.90;93568.69;10445840;28;20323;-29
2023/10/20 12:13:37;;;;;;;5.77;2.47;;;;;;;19.56;60.59;93573.59;10382779;28;20045;-27
2023/10/20 12:18:37;;;;;;;5.70;1.92;;;;;;;19.56;60.50;93580.38;10356823;28;20034;-28
2023/10/20 12:23:38;;;;;;;11.30;2.33;;;;;;;19.58;60.09;93563.38;10347692;28;20485;-29
2023/10/20 12:28:38;;;;;;;5.95;1.77;;;;;;;19.45;60.49;93559.84;10354469;28;20100;-28
2023/10/20 12:33:39;;;;;;;7.50;1.77;;;;;;;19.37;60.41;93536.63;10339191;28;20038;-29
2023/10/20 12:38:43;;;;;;;5.20;1.67;;;;;;;19.31;60.52;93527.63;10359326;28;20481;-28
2023/10/20 12:43:46;;;;;;;7.38;1.70;;;;;;;19.28;60.05;93517.66;10351536;28;20030;-28
2023/10/20 12:48:47;;;;;;;4.28;1.70;;;;;;;19.27;60.17;93517.72;10352308;28;20030;-28
2023/10/20 12:53:47;;;;;;;3.80;1.73;;;;;;;19.25;59.65;93533.00;10348751;28;20034;-29
2023/10/20 12:58:48;;;;;;;2.30;1.47;;;;;;;19.24;59.96;93520.44;10363139;28;20304;-29
2023/10/20 13:03:48;;;;;;;8.90;1.47;;;;;;;19.22;59.81;93525.56;10347892;28;20030;-28
2023/10/20 13:08:50;;;;;;;4.88;1.85;;;;;;;19.17;59.73;93529.22;10351329;28;20301;-28
2023/10/20 13:13:51;;;;;;;3.00;1.30;;;;;;;19.21;60.11;93558.63;10348899;28;20062;-27
2023/10/20 13:18:52;;;;;;;4.10;1.53;;;;;;;19.24;60.04;93553.41;10340370;28;20511;-29
2023/10/20 13:23:53;;;;;;;3.00;1.27;;;;;;;19.27;60.00;93578.59;10345239;28;20034;-28
2023/10/20 13:28:53;;;;;;;4.13;1.63;;;;;;;19.23;60.33;93590.59;10349933;28;20027;-29
2023/10/20 13:33:55;;;;;;;3.73;1.70;;;;;;;19.25;60.18;93610.81;10355161;28;20033;-28
2023/10/20 13:38:55;;;;;;;3.13;1.38;;;;;;;19.25;60.38;93591.34;10356097;28;20408;-29
2023/10/20 13:43:55;;;;;;;3.20;1.55;;;;;;;19.26;60.01;93615.78;10352698;28;20037;-29
2023/10/20 13:48:56;;;;;;;3.80;1.40;;;;;;;19.25;60.23;93610.81;10363675;28;20041;-28
2023/10/20 13:53:56;;;;;;;5.57;2.33;;;;;;;19.21;60.54;93604.25;10347361;28;21367;-28
2023/10/20 13:58:57;;;;;;;4.60;1.27;;;;;;;19.23;60.73;93615.13;10341756;28;20678;-28
2023/10/20 14:03:57;;;;;;;3.83;1.57;;;;;;;19.20;61.20;93623.75;10353486;28;20191;-28
2023/10/20 14:08:58;;;;;;;5.95;1.55;;;;;;;19.24;60.79;93637.09;10349189;28;20311;-28
2023/10/20 14:13:58;;;;;;;7.45;1.92;;;;;;;19.23;61.39;93658.25;10348930;28;20064;-28
2023/10/20 14:18:59;;;;;;;3.93;1.30;;;;;;;19.24;60.63;93632.81;10340062;28;20060;-29
2023/10/20 14:23:59;;;;;;;4.53;2.10;;;;;;;19.23;60.66;93620.19;10344561;28;20129;-29
2023/10/20 14:29:00;;;;;;;3.40;1.13;;;;;;;19.23;61.17;93625.28;10358190;28;20386;-29
2023/10/20 14:34:00;;;;;;;7.80;1.60;;;;;;;19.17;61.16;93643.34;10336525;28;20042;-28
2023/10/20 14:39:01;;;;;;;6.03;1.75;;;;;;;19.20;60.79;93650.81;10356492;28;20459;-29
2023/10/20 14:44:01;;;;;;;6.67;2.10;;;;;;;19.19;60.09;93649.16;10351324;28;20033;-30
2023/10/20 14:49:02;;;;;;;10.67;2.67;;;;;;;19.21;60.65;93644.84;10349108;28;20038;-29
2023/10/20 14:54:02;;;;;;;12.68;2.67;;;;;;;19.21;60.90;93654.97;10351416;28;20044;-29
2023/10/20 14:59:03;;;;;;;9.65;3.30;;;;;;;19.19;60.90;93649.16;10340341;28;20478;-29
2023/10/20 15:04:05;;;;;;;9.25;2.83;;;;;;;19.18;60.94;93662.72;10355766;28;20464;-28
2023/10/20 15:09:05;;;;;;;7.10;2.28;;;;;;;19.18;61.08;93688.88;10336695;28;20492;-28
2023/10/20 15:14:06;;;;;;;11.53;2.80;;;;;;;19.18;60.60;93681.28;10343929;28;20095;-28
2023/10/20 15:19:06;;;;;;;10.48;2.13;;;;;;;19.19;60.55;93689.75;10349741;28;20026;-28
2023/10/20 15:24:09;;;;;;;5.95;1.90;;;;;;;19.19;60.45;93704.97;10341552;28;20026;-29
2023/10/20 15:29:11;;;;;;;12.20;2.13;;;;;;;19.17;60.53;93701.66;10340423;28;20041;-28
2023/10/20 15:34:11;;;;;;;6.32;2.08;;;;;;;19.17;60.40;93706.72;10337845;28;20046;-29
2023/10/20 15:39:12;;;;;;;4.17;1.60;;;;;;;19.18;60.30;93708.38;10349370;28;20029;-28
2023/10/20 15:44:12;;;;;;;6.03;2.17;;;;;;;19.17;60.24;93747.28;10351609;28;20030;-29
2023/10/20 15:49:12;;;;;;;5.10;1.90;;;;;;;19.16;60.34;93735.53;10344021;28;20034;-28
2023/10/20 15:54:18;;;;;;;5.60;1.50;;;;;;;19.15;60.30;93736.38;10343284;28;20034;-29
2023/10/20 15:59:22;;;;;;;7.35;1.85;;;;;;;19.14;60.27;93752.50;10347951;28;20124;-28
2023/10/20 16:04:25;;;;;;;4.70;1.70;;;;;;;19.13;60.33;93756.78;10346125;28;20539;-28
2023/10/20 16:09:26;;;;;;;4.80;1.75;;;;;;;19.14;60.31;93753.34;10352943;28;20049;-28
2023/10/20 16:14:27;;;;;;;6.83;1.47;;;;;;;19.13;60.16;93743.25;10351536;28;20037;-29
2023/10/20 16:19:27;;;;;;;5.03;1.50;;;;;;;19.12;60.46;93754.31;10331680;28;20293;-28
2023/10/20 16:24:28;;;;;;;2.95;1.15;;;;;;;19.11;59.78;93752.66;10335335;28;20479;-28
2023/10/20 16:29:28;;;;;;;5.75;1.50;;;;;;;19.14;60.06;93752.50;10344183;28;20034;-28
2023/10/20 16:34:28;;;;;;;2.97;1.17;;;;;;;19.15;60.17;93754.97;10336866;28;20092;-29
2023/10/20 16:39:29;;;;;;;2.57;1.40;;;;;;;19.19;60.12;93758.22;10332669;28;20049;-28
2023/10/20 16:44:29;;;;;;;7.50;1.52;;;;;;;19.10;59.87;93751.03;10338369;28;20380;-28
2023/10/20 16:49:30;;;;;;;5.87;1.57;;;;;;;19.13;60.67;93755.94;10343646;28;20962;-28
2023/10/20 16:54:31;;;;;;;6.03;1.80;;;;;;;19.17;61.81;93775.19;10346689;28;20388;-28
2023/10/20 16:59:32;;;;;;;9.68;1.60;;;;;;;19.19;61.44;93766.63;10342797;28;20309;-28
2023/10/20 17:04:33;;;;;;;6.20;1.48;;;;;;;19.18;62.46;93769.22;10349298;28;20038;-29
2023/10/20 17:09:34;;;;;;;16.02;2.78;;;;;;;19.31;61.58;93765.19;10348702;28;20500;-28
2023/10/20 17:14:34;;;;;;;6.40;1.75;;;;;;;19.22;61.27;93755.50;10358751;28;20392;-28
2023/10/20 17:19:35;;;;;;;8.20;2.00;;;;;;;19.21;61.53;93761.47;10339727;28;20049;-29
2023/10/20 17:24:38;;;;;;;7.80;1.90;;;;;;;19.18;61.34;93754.81;10342952;28;20108;-29
2023/10/20 17:29:38;;;;;;;7.82;1.80;;;;;;;19.17;61.27;93767.59;10346765;28;20057;-29
2023/10/20 17:34:39;;;;;;;5.30;1.40;;;;;;;19.18;60.85;93774.28;10351661;28;20042;-28
2023/10/20 17:39:41;;;;;;;4.30;1.55;;;;;;;19.16;60.82;93781.97;10342719;28;20292;-29
2023/10/20 17:44:41;;;;;;;2.10;1.40;;;;;;;19.17;60.64;93765.84;10305986;28;20026;-29
2023/10/20 17:49:41;;;;;;;4.40;1.60;;;;;;;19.19;61.34;93765.81;10316766;28;20042;-28
2023/10/20 17:54:43;;;;;;;4.30;1.50;;;;;;;19.24;60.66;93777.38;10359612;28;20493;-28
2023/10/20 17:59:43;;;;;;;6.65;2.00;;;;;;;19.27;60.69;93766.25;10343509;28;20460;-28
2023/10/20 18:04:44;;;;;;;7.73;1.70;;;;;;;19.26;61.21;93777.31;10340989;28;20089;-28
2023/10/20 18:09:44;;;;;;;9.33;1.97;;;;;;;19.26;61.10;93762.09;10352961;28;20040;-29
2023/10/20 18:14:47;;;;;;;7.17;1.93;;;;;;;19.26;61.04;93777.31;10344063;28;20030;-28
2023/10/20 18:19:47;;;;;;;5.40;1.90;;;;;;;19.24;60.57;93779.09;10344330;28;20042;-29
2023/10/20 18:24:51;;;;;;;6.75;2.00;;;;;;;19.23;60.96;93785.03;10342043;28;20108;-28
2023/10/20 18:29:51;;;;;;;7.18;1.67;;;;;;;19.25;60.59;93818.78;10351804;28;20110;-29
2023/10/20 18:34:51;;;;;;;7.35;1.70;;;;;;;19.24;60.78;93809.53;10340583;28;20041;-28
2023/10/20 18:39:52;;;;;;;2.80;1.20;;;;;;;19.22;60.72;93807.06;10342883;28;20818;-28
2023/10/20 18:44:53;;;;;;;5.77;1.73;;;;;;;19.22;60.44;93806.22;10342844;28;20052;-29
2023/10/20 18:49:53;;;;;;;6.35;1.17;;;;;;;19.21;60.78;93800.34;10348391;28;20041;-29
2023/10/20 18:54:53;;;;;;;5.43;1.63;;;;;;;19.22;60.77;93789.31;10345162;28;20034;-28
2023/10/20 18:59:54;;;;;;;6.83;2.00;;;;;;;19.14;61.00;93788.00;10338534;28;20042;-28
2023/10/20 19:04:55;;;;;;;4.38;1.30;;;;;;;19.20;60.83;93800.41;10339899;28;20045;-28
2023/10/20 19:09:55;;;;;;;4.80;1.15;;;;;;;19.18;61.14;93792.84;10331160;28;20092;-29
2023/10/20 19:14:56;;;;;;;3.17;1.20;;;;;;;19.16;61.19;93801.44;10330065;28;20501;-28
2023/10/20 19:19:56;;;;;;;4.05;1.55;;;;;;;19.20;61.01;93813.09;10343678;28;20034;-29
2023/10/20 19:24:56;;;;;;;7.93;1.40;;;;;;;19.20;61.33;93813.09;10335325;28;20455;-27
2023/10/20 19:29:57;;;;;;;3.93;1.10;;;;;;;19.21;60.58;93823.19;10342062;28;20108;-28
2023/10/20 19:35:00;;;;;;;4.90;1.20;;;;;;;19.20;60.97;93806.31;10346165;28;20230;-28
2023/10/20 19:40:00;;;;;;;4.85;1.30;;;;;;;19.21;61.24;93805.44;10342829;28;20281;-30
2023/10/20 19:45:01;;;;;;;3.27;1.20;;;;;;;19.21;61.34;93825.72;10342594;28;20034;-28
2023/10/20 19:50:04;;;;;;;8.07;1.55;;;;;;;19.22;60.99;93836.66;10337657;28;20041;-29
2023/10/20 19:55:05;;;;;;;4.85;1.10;;;;;;;19.22;61.45;93846.81;10356712;28;20666;-29
2023/10/20 20:00:06;;;;;;;2.88;1.40;;;;;;;19.20;61.18;93861.28;10350026;28;20042;-28
2023/10/20 20:05:13;;;;;;;4.70;1.13;;;;;;;19.20;61.54;93856.22;10335068;28;20125;-28
2023/10/20 20:10:14;;;;;;;5.88;2.70;;;;;;;19.21;61.20;93857.84;10334027;28;20034;-29
2023/10/20 20:15:17;;;;;;;8.57;1.27;;;;;;;19.20;61.44;93864.66;10328212;28;20044;-29
2023/10/20 20:20:18;;;;;;;2.72;1.20;;;;;;;19.20;61.37;93879.03;10335711;28;20038;-28
2023/10/20 20:25:18;;;;;;;4.57;1.20;;;;;;;19.19;61.05;93883.28;10354185;28;20396;-29
2023/10/20 20:30:20;;;;;;;1.90;1.10;;;;;;;19.20;61.24;93894.25;10346190;28;20093;-29
2023/10/20 20:35:21;;;;;;;3.90;1.08;;;;;;;19.19;60.76;93883.28;10355118;28;20041;-29
2023/10/20 20:40:22;;;;;;;2.70;0.80;;;;;;;19.17;61.11;93885.03;10350919;28;20034;-27
2023/10/20 20:45:22;;;;;;;4.93;0.98;;;;;;;19.18;60.95;93885.88;10345410;28;20041;-29
2023/10/20 20:50:22;;;;;;;3.07;1.40;;;;;;;19.17;61.01;93894.38;10358524;28;20046;-28
2023/10/20 20:55:24;;;;;;;3.80;1.38;;;;;;;19.16;60.94;93898.59;10340089;28;20038;-30
2023/10/20 21:00:24;;;;;;;5.40;1.30;;;;;;;19.17;60.90;93900.25;10362923;28;20041;-28
2023/10/20 21:05:24;;;;;;;4.63;1.37;;;;;;;19.15;61.09;93907.13;10348773;28;20477;-29
2023/10/20 21:10:28;;;;;;;6.15;2.10;;;;;;;19.15;60.94;93929.09;10354382;28;20467;-28
2023/10/20 21:15:28;;;;;;;5.72;1.73;;;;;;;19.13;60.55;93891.16;10349344;28;20117;-29
2023/10/20 21:20:28;;;;;;;5.77;1.20;;;;;;;19.16;60.59;93893.53;10358704;28;20080;-29
2023/10/20 21:25:35;;;;;;;2.53;1.00;;;;;;;19.14;60.76;93884.34;10349914;28;20034;-28
2023/10/20 21:30:36;;;;;;;;;;;;;;;19.14;60.72;93904.63;10344847;28;20034;-28
2023/10/20 21:35:40;;;;;;;2.33;1.13;;;;;;;19.13;60.61;93946.94;10341891;28;20288;-28
2023/10/20 21:40:45;;;;;;;3.20;1.33;;;;;;;19.14;60.72;93910.53;10357043;28;20036;-28
2023/10/20 21:45:58;;;;;;;4.72;1.27;;;;;;;19.12;60.66;93907.28;10357225;28;20116;-28
2023/10/20 21:51:01;;;;;;;3.40;1.20;;;;;;;19.14;60.68;93909.72;10353717;28;20123;-27
2023/10/20 21:56:09;;;;;;;5.75;0.93;;;;;;;19.12;60.82;93919.94;10348528;28;20045;-28
2023/10/20 22:01:09;;;;;;;8.20;1.30;;;;;;;19.10;60.80;93939.47;10349057;28;20034;-28
2023/10/20 22:06:09;;;;;;;2.53;1.43;;;;;;;19.12;60.72;93952.06;10340925;28;20874;-28
2023/10/20 22:11:10;;;;;;;3.43;1.20;;;;;;;19.12;60.45;93993.50;10358962;28;20300;-28
2023/10/20 22:16:10;;;;;;;9.30;1.73;;;;;;;19.11;60.40;94002.00;10345065;28;20787;-28
2023/10/20 22:21:12;;;;;;;1.42;0.80;;;;;;;19.13;60.51;94050.06;10341709;28;20289;-27
2023/10/20 22:26:12;;;;;;;4.70;1.13;;;;;;;19.14;60.61;94064.41;10340986;28;20037;-28
2023/10/20 22:31:15;;;;;;;2.40;0.90;;;;;;;19.14;60.68;94079.63;10341564;28;20042;-27
2023/10/20 22:36:15;;;;;;;4.28;1.05;;;;;;;19.14;60.87;94092.28;10340238;28;20030;-27
2023/10/20 22:41:17;;;;;;;4.30;1.00;;;;;;;19.14;60.59;94118.50;10346051;28;20026;-28
2023/10/20 22:46:17;;;;;;;3.88;1.20;;;;;;;19.13;61.14;94116.00;10350520;28;20042;-28
2023/10/20 22:51:18;;;;;;;4.20;0.83;;;;;;;19.12;60.59;94104.22;10346795;28;20037;-28
2023/10/20 22:56:18;;;;;;;6.67;1.50;;;;;;;19.01;60.65;94119.09;10350819;28;20026;-28
2023/10/20 23:01:19;;;;;;;4.73;1.47;;;;;;;19.01;60.97;94126.69;10343045;28;20103;-28
2023/10/20 23:06:19;;;;;;;6.00;1.00;;;;;;;19.13;60.79;94157.41;10337051;28;20501;-29
2023/10/20 23:11:19;;;;;;;7.90;1.50;;;;;;;19.15;60.67;94185.22;10353590;28;20030;-28
2023/10/20 23:16:20;;;;;;;4.53;1.40;;;;;;;19.15;60.71;94201.28;10363338;28;20038;-28
2023/10/20 23:21:20;;;;;;;1.77;0.83;;;;;;;19.12;60.76;94213.25;10355388;28;20046;-28
2023/10/20 23:26:21;;;;;;;4.47;1.00;;;;;;;19.10;60.65;94180.34;10353168;28;20496;-28
2023/10/20 23:31:21;;;;;;;2.47;0.70;;;;;;;19.15;60.99;94202.97;10346467;28;20041;-28
2023/10/20 23:36:21;;;;;;;4.90;0.80;;;;;;;19.14;60.95;94216.56;10341747;28;20031;-28
2023/10/20 23:41:22;;;;;;;5.77;0.97;;;;;;;19.14;61.03;94224.16;10351183;28;20050;-28